Nearby METAR Reports

 

KSJC - San Jose, California, USA
Distance from station: NE 9mi, 14km
Updated: Sun, 19-Oct-2014 7:53pm PDT
NOT Current
Clear
Clear
 Wind from WNW
Wind: WNW 8 mph , 13 km/h
Temperature: 64°F , 18°C
Dew Point: 57°F , 14°C
Humidity: 78%
Barometer: 29.88 inHg , 1011.9 hPa
Clouds: Clear
Visibility: 10 miles , 16 km
2014/10/20 02:53 KSJC 200253Z 30007KT 10SM CLR 18/14 A2988 RMK AO2 SLP119 T01780144 53013
KNUQ - Moffett Nas/Mtn, California, USA
Distance from station: N 9mi, 14km
Updated: Sun, 19-Oct-2014 7:56pm PDT
NOT Current
Clear
Clear
 Wind from NNW
Wind: NNW 8 mph , 13 km/h
Temperature: 64°F , 18°C
Dew Point: 61°F , 16°C
Humidity: 88%
Barometer: 29.89 inHg , 1012.2 hPa
Clouds: Clear
Visibility: 10 miles , 16 km
2014/10/20 02:56 KNUQ 200256Z 34007KT 10SM CLR 18/16 A2989 RMK AO2 SLP124 T01830161 53011
 
KPAO - Palo Alto, California, USA
Distance from station: NNW 14mi, 23km
Updated: Sun, 19-Oct-2014 7:47pm PDT
NOT Current
Clear
Clear
 Wind from NNW
Wind: NNW 9 mph , 15 km/h
Temperature: 64°F , 18°C
Dew Point: 59°F , 15°C
Humidity: 83%
Barometer: 29.88 inHg , 1011.9 hPa
Clouds: Clear
Visibility: 10 miles , 16 km
2014/10/20 02:47 KPAO 200247Z 33008KT 10SM SKC 18/15 A2988
KRHV - San Jose/Reid, California, USA
Distance from station: ENE 12mi, 19km
Updated: Sun, 19-Oct-2014 7:47pm PDT
NOT Current
Clear
Clear
 Wind from W
Wind: W 9 mph , 15 km/h
Temperature: 79°F , 26°C
Dew Point: 52°F , 11°C
Humidity: 39%
Barometer: 29.90 inHg , 1012.5 hPa
Clouds: Clear
Visibility: 10 miles , 16 km
2014/10/20 02:47 KRHV 200247Z 28008KT 10SM SKC 26/11 A2990
 
KOAK - Oakland, California, USA
Distance from station: NNW 31mi, 50km
Updated: Sun, 19-Oct-2014 7:53pm PDT
NOT Current
Few Clouds
Few Clouds
 Wind from W
Wind: W 14 mph , 22 km/h
Temperature: 64°F , 18°C
Dew Point: 57°F , 14°C
Humidity: 78%
Barometer: 29.89 inHg , 1012.2 hPa
Clouds: Few Clouds
Visibility: 10 miles , 16 km
Cloud details: Few Clouds 1000 ft
2014/10/20 02:53 KOAK 200253Z 28012KT 10SM FEW010 18/14 A2989 RMK AO2 SLP120 T01780139 53006
KSQL - San Carlos Airpo, California, USA
Distance from station: NW 21mi, 34km
Updated: Sun, 19-Oct-2014 7:53pm PDT
NOT Current
Few Clouds
Few Clouds
 Wind from WNW
Wind: WNW 7 mph , 11 km/h
Temperature: 64°F , 18°C
Dew Point: 57°F , 14°C
Humidity: 78%
Barometer: 29.90 inHg , 1012.5 hPa
Clouds: Few Clouds
Visibility: 10 miles , 16 km
Cloud details: Few Clouds 2000 ft
2014/10/20 02:53 KSQL 200253Z 29006KT 10SM FEW020 18/14 A2990
 
KSFO - San Francisco, California, USA
Distance from station: NW 30mi, 49km
Updated: Sun, 19-Oct-2014 8:10pm PDT
Partly cloudy
Partly cloudy
 Wind from WNW
Wind: WNW 5 mph , 7 km/h
Temperature: 66°F , 19°C
Dew Point: 59°F , 15°C
Humidity: 78%
Barometer: 29.89 inHg , 1012.2 hPa
Clouds: Partly cloudy
Visibility: 10 miles , 16 km
Cloud details: Few Clouds 1200 ft
Partly cloudy 1800 ft
2014/10/20 03:10 KSFO 200310Z 30004KT 10SM FEW012 SCT018 19/15 A2989 RMK AO2
KE16 - San Martin, California, USA
Distance from station: ESE 27mi, 43km
Updated: Sun, 19-Oct-2014 8:15pm PDT
Partly cloudy
Partly cloudy
 Wind from SSE
Wind: SSE 6 mph , 9 km/h
Temperature: 64°F , 18°C
Dew Point: 57°F , 14°C
Humidity: 78%
Barometer: 29.91 inHg , 1012.9 hPa
Clouds: Partly cloudy
Visibility: 10 miles , 16 km
Cloud details: Few Clouds 3800 ft
Few Clouds 4500 ft
Partly cloudy 5500 ft
2014/10/20 03:15 KE16 200315Z AUTO 15005KT 10SM FEW038 FEW045 SCT055 18/14 A2991 RMK AO2
 
KWVI - Watsonville, California, USA
Distance from station: SSE 27mi, 44km
Updated: Sun, 19-Oct-2014 8:19pm PDT
Mist, Overcast
Mist, Overcast
 Wind from calm
Wind: Calm
Temperature: 63°F , 17°C
Dew Point: 61°F , 16°C
Humidity: 94%
Barometer: 29.91 inHg , 1012.9 hPa
Summary: Mist
Clouds: Overcast
Visibility: 1 1/4 miles , 2 km
Cloud details: Overcast 300 ft
2014/10/20 03:19 KWVI 200319Z AUTO 00000KT 1 1/4SM BR OVC003 17/16 A2991 RMK AO2 T01670156
KHAF - Half Moon Bay, California, USA
Distance from station: WNW 31mi, 50km
Updated: Sun, 19-Oct-2014 8:15pm PDT
Few Clouds
Few Clouds
 Wind from calm
Wind: Calm
Temperature: 57°F , 14°C
Dew Point: 55°F , 13°C
Humidity: 94%
Barometer: 29.90 inHg , 1012.5 hPa
Clouds: Few Clouds
Visibility: 7 miles , 11 km
Cloud details: Few Clouds 2100 ft
2014/10/20 03:15 KHAF 200315Z AUTO 00000KT 7SM FEW021 14/13 A2990 RMK AO2
 
KHWD - Hayward, California, USA
Distance from station: N 28mi, 44km
Updated: Sun, 19-Oct-2014 7:54pm PDT
NOT Current
Clear
Clear
 Wind from WNW
Wind: WNW 8 mph , 13 km/h
Temperature: 63°F , 17°C
Dew Point: 61°F , 16°C
Humidity: 94%
Barometer: 29.89 inHg , 1012.2 hPa
Clouds: Clear
Visibility: 10 miles , 16 km
2014/10/20 02:54 KHWD 200254Z 30007KT 10SM CLR 17/16 A2989 RMK AO2 SLP130 T01720161 53008
KLVK - Livermore, California, USA
Distance from station: NNE 31mi, 51km
Updated: Sun, 19-Oct-2014 7:53pm PDT
NOT Current
Clear
Clear
 Wind from WNW
Wind: WNW 7 mph , 11 km/h
Temperature: 66°F , 19°C
Dew Point: 55°F , 13°C
Humidity: 68%
Barometer: 29.87 inHg , 1011.5 hPa
Clouds: Clear
Visibility: 10 miles , 16 km
2014/10/20 02:53 KLVK 200253Z 29006KT 10SM CLR 19/13 A2987 RMK AO2 SLP113 T01890133 53013